createdAt,value
2023-04-08T00:00:13.057Z,74.48
2023-04-08T00:02:43.782Z,74.71
2023-04-08T00:05:12.153Z,74.77
2023-04-08T00:07:41.971Z,74.36
2023-04-08T00:10:10.572Z,74.43
2023-04-08T00:12:38.718Z,74.94
2023-04-08T00:15:07.629Z,74.59
2023-04-08T00:17:36.095Z,74.54
2023-04-08T00:20:04.761Z,74.57
2023-04-08T00:22:33.112Z,74.75
2023-04-08T00:25:01.842Z,74.86
2023-04-08T00:27:39.285Z,75.06
2023-04-08T00:30:07.733Z,75.27
2023-04-08T00:32:36.595Z,75.51
2023-04-08T00:35:05.565Z,75.64
2023-04-08T00:37:35.183Z,75.88
2023-04-08T00:40:04.830Z,76.00
2023-04-08T00:42:33.348Z,75.98
2023-04-08T00:45:01.789Z,75.51
2023-04-08T00:47:31.328Z,75.59
2023-04-08T00:49:59.590Z,75.36
2023-04-08T00:52:27.714Z,75.07
2023-04-08T00:54:58.435Z,75.06
2023-04-08T00:57:27.077Z,75.25
2023-04-08T01:00:01.211Z,75.27
2023-04-08T01:03:00.248Z,75.28
2023-04-08T01:05:41.695Z,75.86
2023-04-08T01:08:09.797Z,76.21
2023-04-08T01:10:41.628Z,76.29
2023-04-08T01:13:11.982Z,76.27
2023-04-08T01:15:41.474Z,76.53
2023-04-08T01:18:12.630Z,76.55
2023-04-08T01:20:42.465Z,76.62
2023-04-08T01:23:16.445Z,76.76
2023-04-08T01:26:03.263Z,77.13
2023-04-08T01:28:32.137Z,77.38
2023-04-08T01:31:01.179Z,77.62
2023-04-08T01:33:29.486Z,77.95
2023-04-08T01:36:02.475Z,78.60
2023-04-08T01:38:31.348Z,78.53
2023-04-08T01:40:59.722Z,78.83
2023-04-08T01:43:27.904Z,79.56
2023-04-08T01:45:58.494Z,79.87
2023-04-08T01:48:27.303Z,80.35
2023-04-08T01:50:56.484Z,80.87
2023-04-08T01:53:24.996Z,80.83
2023-04-08T01:55:57.584Z,81.07
2023-04-08T01:58:26.177Z,81.04
2023-04-08T02:00:54.171Z,81.43
2023-04-08T02:03:23.703Z,81.87
2023-04-08T02:05:52.150Z,82.24
2023-04-08T02:08:20.383Z,81.90
2023-04-08T02:10:50.440Z,81.70
2023-04-08T02:13:19.138Z,81.75
2023-04-08T02:15:52.057Z,82.16
2023-04-08T02:18:28.275Z,82.47
2023-04-08T02:20:59.980Z,83.09
2023-04-08T02:23:33.378Z,82.91
2023-04-08T02:26:01.284Z,82.70
2023-04-08T02:28:29.710Z,83.11
2023-04-08T02:31:00.766Z,83.36
2023-04-08T02:33:31.218Z,83.74
2023-04-08T02:35:59.835Z,83.75
2023-04-08T02:38:33.950Z,83.41
2023-04-08T02:41:02.069Z,83.46
2023-04-08T02:43:32.540Z,83.17
2023-04-08T02:46:04.355Z,83.29
2023-04-08T02:48:32.928Z,83.41
2023-04-08T02:51:01.617Z,83.43
2023-04-08T02:53:31.332Z,82.97
2023-04-08T02:56:00.661Z,82.78
2023-04-08T02:58:29.001Z,82.81
2023-04-08T03:00:57.667Z,82.85
2023-04-08T03:03:30.487Z,82.80
2023-04-08T03:05:59.471Z,82.67
2023-04-08T03:08:27.516Z,82.34
2023-04-08T03:10:56.597Z,82.48
2023-04-08T03:13:25.839Z,82.57
2023-04-08T03:15:54.024Z,82.81
2023-04-08T03:18:22.243Z,82.94
2023-04-08T03:20:50.448Z,82.72
2023-04-08T03:23:18.555Z,82.58
2023-04-08T03:25:47.025Z,82.56
2023-04-08T03:28:15.644Z,82.58
2023-04-08T03:30:44.605Z,82.78
2023-04-08T03:33:14.047Z,82.98
2023-04-08T03:35:42.109Z,83.05
2023-04-08T03:38:10.231Z,82.84
2023-04-08T03:40:38.420Z,83.16
2023-04-08T03:43:08.901Z,83.43
2023-04-08T03:45:37.296Z,83.88
2023-04-08T03:48:06.349Z,83.98
2023-04-08T03:50:34.928Z,83.80
2023-04-08T03:53:06.000Z,84.28
2023-04-08T03:55:34.282Z,84.87
2023-04-08T03:58:08.089Z,85.10
2023-04-08T04:00:36.259Z,85.48
2023-04-08T04:03:13.399Z,85.60
2023-04-08T04:05:42.667Z,86.23
2023-04-08T04:08:10.783Z,86.36
2023-04-08T04:10:39.436Z,86.49
2023-04-08T04:13:07.878Z,86.40
2023-04-08T04:15:40.401Z,86.47
2023-04-08T04:18:09.126Z,86.26
2023-04-08T04:20:41.662Z,86.28
2023-04-08T04:23:10.087Z,86.35
2023-04-08T04:25:41.651Z,86.53
2023-04-08T04:28:17.640Z,86.97
2023-04-08T04:30:48.265Z,86.96
2023-04-08T04:33:17.256Z,86.69
2023-04-08T04:35:48.139Z,86.90
2023-04-08T04:38:16.243Z,87.00
2023-04-08T04:40:47.882Z,86.64
2023-04-08T04:43:17.289Z,86.44
2023-04-08T04:45:47.565Z,86.38
2023-04-08T04:48:16.798Z,86.39
2023-04-08T04:50:45.124Z,85.86
2023-04-08T04:53:18.713Z,85.80
2023-04-08T04:55:48.596Z,85.79
2023-04-08T04:58:16.717Z,86.10
2023-04-08T05:00:46.849Z,85.83
2023-04-08T05:03:16.965Z,85.96
2023-04-08T05:05:54.574Z,85.92
2023-04-08T05:08:24.534Z,85.55
2023-04-08T05:10:57.089Z,85.42
2023-04-08T05:13:29.004Z,85.48
2023-04-08T05:16:00.230Z,85.61
2023-04-08T05:18:28.401Z,85.35
2023-04-08T05:21:00.670Z,85.24
2023-04-08T05:23:35.434Z,84.67
2023-04-08T05:26:03.874Z,84.88
2023-04-08T05:28:35.173Z,84.67
2023-04-08T05:31:03.369Z,84.39
2023-04-08T05:33:31.812Z,83.78
2023-04-08T05:36:00.323Z,83.60
2023-04-08T05:38:30.648Z,83.40
2023-04-08T05:40:58.770Z,83.38
2023-04-08T05:43:26.757Z,83.19
2023-04-08T05:45:58.617Z,82.95
2023-04-08T05:48:33.238Z,82.71
2023-04-08T05:51:05.072Z,82.62
2023-04-08T05:53:34.090Z,82.14
2023-04-08T05:56:02.316Z,81.80
2023-04-08T05:58:30.989Z,81.46
2023-04-08T06:00:59.014Z,81.21
2023-04-08T06:03:33.805Z,81.17
2023-04-08T06:06:03.152Z,80.82
2023-04-08T06:08:31.692Z,80.53
2023-04-08T06:11:04.243Z,80.22
2023-04-08T06:13:36.200Z,79.85
2023-04-08T06:16:21.223Z,79.36
2023-04-08T06:18:54.696Z,79.36
2023-04-08T06:21:23.249Z,78.97
2023-04-08T06:23:51.354Z,78.79
2023-04-08T06:26:19.469Z,78.90
2023-04-08T06:28:47.613Z,78.30
2023-04-08T06:31:16.414Z,78.19
2023-04-08T06:33:47.482Z,77.92
2023-04-08T06:36:15.589Z,77.49
2023-04-08T06:38:43.995Z,77.44
2023-04-08T06:41:11.942Z,77.31
2023-04-08T06:43:41.372Z,76.99
2023-04-08T06:46:09.502Z,76.41
2023-04-08T06:48:39.595Z,75.93
2023-04-08T06:51:08.159Z,76.02
2023-04-08T06:54:50.482Z,75.43
2023-04-08T06:57:19.696Z,75.15
2023-04-08T06:59:48.365Z,74.51
2023-04-08T07:02:16.800Z,74.49
2023-04-08T07:04:46.857Z,74.55
2023-04-08T07:07:15.420Z,74.07
2023-04-08T07:09:46.125Z,73.90
2023-04-08T07:12:14.205Z,73.65
2023-04-08T07:14:42.199Z,73.41
2023-04-08T07:17:11.421Z,73.34
2023-04-08T07:19:39.593Z,73.10
2023-04-08T07:22:07.607Z,72.97
2023-04-08T07:24:36.662Z,72.46
2023-04-08T07:27:04.935Z,72.31
2023-04-08T07:29:36.581Z,72.17
2023-04-08T07:32:06.093Z,72.04
2023-04-08T07:34:37.258Z,71.76
2023-04-08T07:37:05.707Z,71.51
2023-04-08T07:39:33.891Z,71.27
2023-04-08T07:42:02.713Z,70.84
2023-04-08T07:44:31.987Z,70.83
2023-04-08T07:47:00.328Z,70.66
2023-04-08T07:49:28.817Z,70.63
2023-04-08T07:51:57.743Z,70.67
2023-04-08T07:54:26.082Z,70.29
2023-04-08T07:56:54.557Z,70.31
2023-04-08T07:59:29.392Z,70.23
2023-04-08T08:01:57.468Z,69.85
2023-04-08T08:04:26.279Z,69.38
2023-04-08T08:07:03.542Z,68.70
2023-04-08T08:09:32.258Z,68.36
2023-04-08T08:12:00.751Z,67.95
2023-04-08T08:14:29.239Z,67.68
2023-04-08T08:16:58.858Z,67.05
2023-04-08T08:19:27.086Z,66.79
2023-04-08T08:21:57.076Z,66.60
2023-04-08T08:24:26.067Z,66.32
2023-04-08T08:26:54.670Z,65.92
2023-04-08T08:29:26.241Z,65.83
2023-04-08T08:31:54.956Z,65.17
2023-04-08T08:34:23.470Z,64.71
2023-04-08T08:36:53.331Z,64.16
2023-04-08T08:39:21.920Z,63.78
2023-04-08T08:41:51.436Z,63.52
2023-04-08T08:44:19.782Z,63.01
2023-04-08T08:46:49.583Z,62.99
2023-04-08T08:49:17.884Z,62.74
2023-04-08T08:51:46.462Z,62.25
2023-04-08T08:54:15.495Z,61.08
2023-04-08T08:56:43.582Z,60.31
2023-04-08T08:59:13.050Z,60.49
2023-04-08T09:01:42.083Z,60.58
2023-04-08T09:04:14.971Z,60.02
2023-04-08T09:06:43.921Z,59.71
2023-04-08T09:09:12.293Z,59.44
2023-04-08T09:11:41.833Z,58.80
2023-04-08T09:14:18.561Z,57.76
2023-04-08T09:16:47.360Z,56.63
2023-04-08T09:19:15.999Z,55.52
2023-04-08T09:21:45.669Z,54.56
2023-04-08T09:24:30.322Z,54.07
2023-04-08T09:26:59.735Z,52.97
2023-04-08T09:29:32.424Z,52.79
2023-04-08T09:32:03.070Z,51.87
2023-04-08T09:34:34.630Z,51.24
2023-04-08T09:37:04.275Z,50.51
2023-04-08T09:39:38.749Z,49.69
2023-04-08T09:42:06.950Z,49.35
2023-04-08T09:44:35.047Z,48.71
2023-04-08T09:47:11.023Z,47.96
2023-04-08T09:49:56.681Z,46.99
2023-04-08T09:52:32.674Z,46.85
2023-04-08T09:55:05.391Z,46.25
2023-04-08T09:57:58.501Z,45.51
2023-04-08T10:00:30.506Z,45.36
2023-04-08T10:03:19.842Z,45.15
2023-04-08T10:05:49.162Z,45.01
2023-04-08T10:08:17.376Z,45.38
2023-04-08T10:10:46.755Z,45.19
2023-04-08T10:13:16.149Z,45.38
2023-04-08T10:15:47.676Z,45.74
2023-04-08T10:18:19.245Z,46.03
2023-04-08T10:20:53.001Z,46.56
2023-04-08T10:23:24.195Z,46.84
2023-04-08T10:25:52.529Z,47.40
2023-04-08T10:28:22.631Z,47.78
2023-04-08T10:30:55.734Z,47.95
2023-04-08T10:33:30.823Z,48.18
2023-04-08T10:36:15.554Z,48.79
2023-04-08T10:38:43.770Z,49.41
2023-04-08T10:41:21.797Z,49.90
2023-04-08T10:43:58.792Z,50.26
2023-04-08T10:46:28.267Z,50.62
2023-04-08T10:49:03.729Z,51.31
2023-04-08T10:51:44.533Z,51.80
2023-04-08T10:54:17.418Z,52.07
2023-04-08T10:56:46.769Z,52.26
2023-04-08T10:59:17.105Z,52.37
2023-04-08T11:01:46.363Z,52.53
2023-04-08T11:04:15.921Z,52.53
2023-04-08T11:06:46.984Z,52.34
2023-04-08T11:09:16.026Z,52.27
2023-04-08T11:11:45.337Z,51.86
2023-04-08T11:14:13.953Z,51.40
2023-04-08T11:16:42.514Z,51.07
2023-04-08T11:19:10.549Z,50.95
2023-04-08T11:21:42.267Z,50.55
2023-04-08T11:24:14.725Z,50.08
2023-04-08T11:26:48.173Z,48.90
2023-04-08T11:29:16.972Z,47.52
2023-04-08T11:31:45.052Z,45.89
2023-04-08T11:34:13.587Z,44.76
2023-04-08T11:36:41.819Z,42.77
2023-04-08T11:39:12.439Z,40.96
2023-04-08T11:41:41.986Z,40.02
2023-04-08T11:44:10.436Z,39.42
2023-04-08T11:46:41.040Z,39.41
2023-04-08T11:49:13.035Z,38.41
2023-04-08T11:51:59.420Z,38.00
2023-04-08T11:54:32.333Z,36.72
2023-04-08T11:57:01.267Z,35.89
2023-04-08T11:59:31.948Z,35.78
2023-04-08T12:02:02.202Z,34.58
2023-04-08T12:04:30.817Z,33.77
2023-04-08T12:07:02.193Z,32.82
2023-04-08T12:09:30.600Z,32.72
2023-04-08T12:11:59.275Z,32.16
2023-04-08T12:14:28.646Z,31.63
2023-04-08T12:16:57.105Z,31.16
2023-04-08T12:19:35.294Z,30.77
2023-04-08T12:22:06.261Z,30.88
2023-04-08T12:24:34.757Z,31.18
2023-04-08T12:27:10.498Z,31.43
2023-04-08T12:29:38.519Z,31.60
2023-04-08T12:32:06.523Z,31.28
2023-04-08T12:34:34.916Z,30.21
2023-04-08T12:37:03.139Z,29.60
2023-04-08T12:39:33.401Z,29.83
2023-04-08T12:42:01.411Z,30.16
2023-04-08T12:44:29.960Z,30.48
2023-04-08T12:46:58.877Z,30.18
2023-04-08T12:49:28.176Z,29.90
2023-04-08T12:51:56.364Z,30.00
2023-04-08T12:54:24.353Z,30.37
2023-04-08T12:56:52.327Z,30.85
2023-04-08T12:59:21.842Z,31.32
2023-04-08T13:01:50.147Z,32.06
2023-04-08T13:04:19.907Z,32.77
2023-04-08T13:06:48.398Z,33.89
2023-04-08T13:09:16.969Z,34.59
2023-04-08T13:11:45.275Z,35.26
2023-04-08T13:14:14.685Z,35.83
2023-04-08T13:16:43.039Z,36.31
2023-04-08T13:19:11.318Z,36.82
2023-04-08T13:21:40.137Z,37.30
2023-04-08T13:24:08.305Z,38.09
2023-04-08T13:26:37.082Z,38.84
2023-04-08T13:29:05.666Z,39.40
2023-04-08T13:31:34.350Z,41.21
2023-04-08T13:34:02.553Z,42.92
2023-04-08T13:36:34.001Z,44.52
2023-04-08T13:39:02.492Z,45.55
2023-04-08T13:41:30.788Z,47.00
2023-04-08T13:43:59.516Z,49.85
2023-04-08T13:46:28.039Z,51.54
2023-04-08T13:48:57.652Z,53.22
2023-04-08T13:51:27.207Z,54.61
2023-04-08T13:53:55.734Z,56.73
2023-04-08T13:56:24.048Z,58.67
2023-04-08T13:58:57.197Z,60.57
2023-04-08T14:01:28.436Z,61.62
2023-04-08T14:03:57.798Z,62.75
2023-04-08T14:06:26.668Z,63.60
2023-04-08T14:08:56.576Z,63.74
2023-04-08T14:11:24.607Z,64.18
2023-04-08T14:13:53.133Z,64.85
2023-04-08T14:16:21.280Z,66.07
2023-04-08T14:18:50.107Z,66.43
2023-04-08T14:21:18.981Z,66.72
2023-04-08T14:23:48.262Z,67.20
2023-04-08T14:26:16.794Z,67.69
2023-04-08T14:28:49.841Z,67.74
2023-04-08T14:31:18.117Z,67.41
2023-04-08T14:33:46.653Z,67.93
2023-04-08T14:36:14.772Z,67.28
2023-04-08T14:38:43.083Z,66.95
2023-04-08T14:41:13.556Z,67.37
2023-04-08T14:43:41.920Z,67.71
2023-04-08T14:46:10.022Z,67.30
2023-04-08T14:48:38.410Z,67.34
2023-04-08T14:51:06.464Z,67.18
2023-04-08T14:53:54.379Z,66.37
2023-04-08T14:56:22.520Z,66.85
2023-04-08T14:58:53.611Z,66.22
2023-04-08T15:01:21.875Z,65.87
2023-04-08T15:03:51.162Z,66.17
2023-04-08T15:06:21.897Z,66.60
2023-04-08T15:08:50.854Z,67.46
2023-04-08T15:11:21.059Z,68.37
2023-04-08T15:13:59.209Z,68.81
2023-04-08T15:16:28.477Z,69.12
2023-04-08T15:18:59.857Z,68.82
2023-04-08T15:21:29.547Z,68.50
2023-04-08T15:23:58.836Z,68.32
2023-04-08T15:26:27.877Z,68.29
2023-04-08T15:28:59.486Z,67.63
2023-04-08T15:31:27.548Z,67.48
2023-04-08T15:33:56.466Z,67.64
2023-04-08T15:36:25.125Z,68.30
2023-04-08T15:38:53.831Z,68.52
2023-04-08T15:41:22.358Z,68.00
2023-04-08T15:43:52.588Z,68.35
2023-04-08T15:46:21.316Z,68.31
2023-04-08T15:48:51.631Z,67.83
2023-04-08T15:51:22.462Z,67.55
2023-04-08T15:53:51.720Z,67.16
2023-04-08T15:56:21.085Z,67.01
2023-04-08T15:58:52.175Z,67.22
2023-04-08T16:01:20.518Z,67.36
2023-04-08T16:03:50.743Z,67.60
2023-04-08T16:06:18.755Z,67.83
2023-04-08T16:08:47.326Z,68.52
2023-04-08T16:11:15.629Z,68.79
2023-04-08T16:13:44.104Z,68.81
2023-04-08T16:16:12.556Z,68.95
2023-04-08T16:18:42.198Z,69.02
2023-04-08T16:21:10.456Z,68.87
2023-04-08T16:23:38.926Z,68.75
2023-04-08T16:26:10.547Z,69.15
2023-04-08T16:28:40.242Z,69.54
2023-04-08T16:31:08.385Z,69.88
2023-04-08T16:33:39.038Z,70.41
2023-04-08T16:36:07.572Z,70.72
2023-04-08T16:38:35.938Z,70.48
2023-04-08T16:41:06.379Z,70.46
2023-04-08T16:43:34.827Z,70.54
2023-04-08T16:46:13.143Z,70.37
2023-04-08T16:48:42.274Z,70.16
2023-04-08T16:51:10.762Z,70.58
2023-04-08T16:53:38.946Z,70.65
2023-04-08T16:56:14.903Z,71.25
2023-04-08T16:58:43.567Z,71.30
2023-04-08T17:01:16.475Z,71.39
2023-04-08T17:03:47.888Z,71.42
2023-04-08T17:06:17.974Z,71.70
2023-04-08T17:08:49.141Z,71.94
2023-04-08T17:11:18.291Z,72.07
2023-04-08T17:13:47.125Z,72.32
2023-04-08T17:16:17.864Z,72.39
2023-04-08T17:18:47.147Z,72.57
2023-04-08T17:21:16.195Z,72.93
2023-04-08T17:23:54.750Z,73.29
2023-04-08T17:26:24.872Z,73.55
2023-04-08T17:28:56.542Z,73.92
2023-04-08T17:31:25.000Z,74.20
2023-04-08T17:33:53.039Z,74.28
2023-04-08T17:36:21.045Z,74.36
2023-04-08T17:38:51.189Z,74.27
2023-04-08T17:41:38.011Z,74.17
2023-04-08T17:44:07.856Z,74.38
2023-04-08T17:46:36.927Z,74.53
2023-04-08T17:49:07.992Z,74.59
2023-04-08T17:51:37.596Z,74.56
2023-04-08T17:54:06.011Z,74.59
2023-04-08T17:56:40.050Z,74.53
2023-04-08T17:59:08.394Z,74.14
2023-04-08T18:01:41.540Z,73.90
2023-04-08T18:04:12.687Z,73.62
2023-04-08T18:06:41.461Z,73.59
2023-04-08T18:09:13.213Z,73.59
2023-04-08T18:11:41.531Z,73.55
2023-04-08T18:14:09.981Z,73.37
2023-04-08T18:16:43.144Z,73.67
2023-04-08T18:19:12.622Z,73.69
2023-04-08T18:21:40.767Z,74.19
2023-04-08T18:24:09.330Z,74.36
2023-04-08T18:26:39.086Z,74.67
2023-04-08T18:29:08.093Z,75.03
2023-04-08T18:31:37.395Z,74.88
2023-04-08T18:34:05.646Z,74.83
2023-04-08T18:36:34.081Z,75.03
2023-04-08T18:39:03.336Z,74.91
2023-04-08T18:41:33.277Z,75.13
2023-04-08T18:44:04.247Z,75.14
2023-04-08T18:46:33.084Z,75.08
2023-04-08T18:49:02.229Z,75.44
2023-04-08T18:51:30.873Z,75.35
2023-04-08T18:53:59.320Z,75.36
2023-04-08T18:56:27.388Z,75.31
2023-04-08T18:58:55.846Z,74.93
2023-04-08T19:01:24.118Z,74.98
2023-04-08T19:03:52.927Z,74.87
2023-04-08T19:06:22.833Z,75.19
2023-04-08T19:08:51.157Z,75.47
2023-04-08T19:12:44.229Z,75.90
2023-04-08T19:15:13.699Z,75.92
2023-04-08T19:17:41.763Z,75.85
2023-04-08T19:20:10.565Z,76.18
2023-04-08T19:22:38.856Z,76.27
2023-04-08T19:25:07.537Z,76.09
2023-04-08T19:27:36.426Z,76.44
2023-04-08T19:30:08.624Z,76.56
2023-04-08T19:32:38.842Z,76.68
2023-04-08T19:35:07.724Z,76.70
2023-04-08T19:37:38.491Z,76.90
2023-04-08T19:40:08.502Z,76.99
2023-04-08T19:42:37.293Z,77.00
2023-04-08T19:45:07.027Z,76.90
2023-04-08T19:47:35.972Z,76.67
2023-04-08T19:50:05.189Z,76.77
2023-04-08T19:52:33.513Z,76.62
2023-04-08T19:55:02.440Z,76.57
2023-04-08T19:57:31.933Z,76.42
2023-04-08T20:00:00.138Z,76.14
2023-04-08T20:02:28.316Z,76.30
2023-04-08T20:04:57.653Z,76.62
2023-04-08T20:07:25.912Z,76.59
2023-04-08T20:09:53.847Z,76.59
2023-04-08T20:12:21.883Z,76.78
2023-04-08T20:14:52.718Z,77.11
2023-04-08T20:17:23.011Z,77.66
2023-04-08T20:19:51.733Z,78.29
2023-04-08T20:22:21.482Z,78.71
2023-04-08T20:24:50.111Z,78.82
2023-04-08T20:27:21.376Z,78.83
2023-04-08T20:29:49.367Z,78.59
2023-04-08T20:32:18.783Z,78.20
2023-04-08T20:34:50.276Z,78.16
2023-04-08T20:37:18.549Z,78.08
2023-04-08T20:39:46.689Z,78.05
2023-04-08T20:42:15.993Z,77.48
2023-04-08T20:44:44.069Z,77.45
2023-04-08T20:47:13.399Z,77.50
2023-04-08T20:49:42.871Z,77.12
2023-04-08T20:52:16.059Z,76.83
2023-04-08T20:54:49.456Z,77.09
2023-04-08T20:57:17.556Z,77.14
2023-04-08T20:59:45.973Z,77.08
2023-04-08T21:02:15.479Z,76.45
2023-04-08T21:04:43.994Z,75.99
2023-04-08T21:07:13.196Z,76.06
2023-04-08T21:09:41.773Z,76.65
2023-04-08T21:12:09.937Z,77.33
2023-04-08T21:14:38.105Z,77.88
2023-04-08T21:17:08.349Z,77.70
2023-04-08T21:19:36.589Z,77.35
2023-04-08T21:22:04.796Z,77.25
2023-04-08T21:24:33.654Z,76.94
2023-04-08T21:27:01.892Z,77.34
2023-04-08T21:29:30.400Z,77.68
2023-04-08T21:31:58.645Z,78.32
2023-04-08T21:34:27.188Z,78.56
2023-04-08T21:36:55.794Z,78.60
2023-04-08T21:39:23.935Z,79.01
2023-04-08T21:41:52.383Z,79.28
2023-04-08T21:44:20.925Z,79.88
2023-04-08T21:46:49.213Z,80.01
2023-04-08T21:49:17.218Z,80.29
2023-04-08T21:51:45.988Z,80.29
2023-04-08T21:54:14.043Z,80.35
2023-04-08T21:56:43.604Z,80.69
2023-04-08T21:59:11.608Z,81.00
2023-04-08T22:01:40.040Z,81.38
2023-04-08T22:04:09.605Z,81.16
2023-04-08T22:06:37.694Z,81.22
2023-04-08T22:09:07.233Z,81.16
2023-04-08T22:11:35.645Z,81.40
2023-04-08T22:14:04.549Z,81.58
2023-04-08T22:16:34.349Z,81.91
2023-04-08T22:19:02.904Z,82.10
2023-04-08T22:21:33.127Z,82.01
2023-04-08T22:24:04.131Z,81.90
2023-04-08T22:26:32.275Z,81.91
2023-04-08T22:29:01.074Z,82.26
2023-04-08T22:31:30.062Z,82.16
2023-04-08T22:33:59.811Z,82.04
2023-04-08T22:36:27.843Z,81.66
2023-04-08T22:38:57.263Z,81.49
2023-04-08T22:41:25.804Z,81.58
2023-04-08T22:43:53.800Z,81.69
2023-04-08T22:46:22.730Z,82.00
2023-04-08T22:48:51.246Z,81.72
2023-04-08T22:51:19.553Z,81.57
2023-04-08T22:53:47.676Z,81.57
2023-04-08T22:56:16.016Z,81.85
2023-04-08T22:58:50.285Z,82.04
2023-04-08T23:01:20.991Z,82.23
2023-04-08T23:03:50.233Z,82.48
2023-04-08T23:06:19.934Z,82.13
2023-04-08T23:08:51.426Z,82.18
2023-04-08T23:11:20.838Z,82.45
2023-04-08T23:13:54.971Z,82.63
2023-04-08T23:16:23.950Z,82.78
2023-04-08T23:18:52.625Z,83.03
2023-04-08T23:21:26.278Z,82.58
2023-04-08T23:23:54.863Z,82.78
2023-04-08T23:26:23.027Z,83.06
2023-04-08T23:28:53.925Z,83.13
2023-04-08T23:31:22.897Z,83.25
2023-04-08T23:33:51.816Z,83.38
2023-04-08T23:36:23.138Z,83.77
2023-04-08T23:38:51.692Z,83.78
2023-04-08T23:41:19.981Z,83.96
2023-04-08T23:43:53.592Z,84.04
2023-04-08T23:46:21.757Z,83.85
2023-04-08T23:48:51.161Z,84.19
2023-04-08T23:51:20.381Z,84.45
2023-04-08T23:53:49.351Z,84.91
2023-04-08T23:56:17.705Z,84.73
2023-04-08T23:58:46.794Z,84.52
